»·PEaware :: N815M KAJO-KVCV

N815M :: KAJO-KVCV

FLIGHT INFORMATION

Flight Status: Arrived
Operator: Privately registered:
United States
More flights under this callsign
Pilot: Robert C. (30425)
Aircraft: BEECH AIRCRAFT DEBONAIR BONANZA
(BE33)
More flights by this aircraft type
Origin: KAJO Corona Mun
United States
Destination: KVCV Socal Logistics
United States
More flights between these airports :: More routes between these airports
Route: PDZ V442 APLES
File this flight plan on PilotEdge
Remarks:
Altitude:
(Current/Filed)
9,000ft
Speed:
(Current/Filed)
140kts
Departed: 26-Oct-20 08:23 PM
Arrived: 26-Oct-20 09:16 PM
Distance/Time
Traveled:
43nm/0:53
Distance/Time
To Go:
Arrived

Flight Plot

Page will automatically refresh every two minutes.


Map Options




Map Legend


Flown Route
Filed Route
Departure Airport
Arrival Airport
Navaid (VOR, NDB)
Fix

Horizontal Profiles

Position Reports

Time Latitude Longitude Heading Altitude Ground
Speed
26-Oct-20 19:59 33.896993 -117.607013 180 537ft 0kts
26-Oct-20 20:00 33.896993 -117.607013 180 537ft 0kts
26-Oct-20 20:01 33.896993 -117.607013 180 537ft 0kts
26-Oct-20 20:02 33.896993 -117.607013 180 537ft 0kts
26-Oct-20 20:03 33.896993 -117.607013 180 537ft 0kts
26-Oct-20 20:04 33.896993 -117.607013 180 537ft 0kts
26-Oct-20 20:05 33.896993 -117.607013 180 537ft 0kts
26-Oct-20 20:06 33.896993 -117.607013 180 537ft 0kts
26-Oct-20 20:07 33.896993 -117.607013 180 537ft 0kts
26-Oct-20 20:08 33.896993 -117.607013 180 537ft 0kts
26-Oct-20 20:09 33.896993 -117.607013 180 537ft 0kts
26-Oct-20 20:10 33.896993 -117.607013 180 537ft 0kts
26-Oct-20 20:10 33.896993 -117.607013 180 537ft 0kts
26-Oct-20 20:12 33.896993 -117.607013 180 537ft 0kts
26-Oct-20 20:12 33.896993 -117.607013 180 537ft 0kts
26-Oct-20 20:14 33.896993 -117.607013 180 537ft 0kts
26-Oct-20 20:14 33.896993 -117.607013 180 537ft 0kts
26-Oct-20 20:15 33.896993 -117.607013 180 537ft 0kts
26-Oct-20 20:16 33.896993 -117.607013 180 537ft 0kts
26-Oct-20 20:17 33.896993 -117.607013 180 537ft 0kts
26-Oct-20 20:18 33.896875 -117.607217 264 537ft 1kts
26-Oct-20 20:19 33.896942 -117.607445 332 537ft 0kts
26-Oct-20 20:20 33.896942 -117.607445 332 537ft 0kts
26-Oct-20 20:21 33.897123 -117.607464 359 537ft 3kts
26-Oct-20 20:22 33.898018 -117.593002 87 695ft 107kts
26-Oct-20 20:23 33.905089 -117.554187 53 1717ft 131kts
26-Oct-20 20:24 33.926624 -117.516711 56 2698ft 139kts
26-Oct-20 20:25 33.954458 -117.481965 40 3636ft 136kts
26-Oct-20 20:26 33.986448 -117.465780 316 4551ft 137kts
26-Oct-20 20:27 33.968176 -117.492160 175 5289ft 140kts
26-Oct-20 20:28 33.933873 -117.508307 227 6002ft 140kts
26-Oct-20 20:29 33.910316 -117.545381 272 6693ft 139kts
26-Oct-20 20:30 33.939488 -117.546699 39 7417ft 134kts
26-Oct-20 20:31 33.961184 -117.512422 56 8098ft 132kts
26-Oct-20 20:32 33.992282 -117.487411 28 8690ft 136kts
26-Oct-20 20:33 34.027634 -117.464932 26 9001ft 145kts
26-Oct-20 20:34 34.064538 -117.442500 26 9000ft 148kts
26-Oct-20 20:35 34.102085 -117.419871 25 9000ft 149kts
26-Oct-20 20:36 34.139609 -117.397206 25 8999ft 149kts
26-Oct-20 20:37 34.177416 -117.374411 25 8999ft 149kts
26-Oct-20 20:38 34.215091 -117.351684 25 8999ft 149kts
26-Oct-20 20:39 34.252896 -117.328931 26 8999ft 149kts
26-Oct-20 20:40 34.290481 -117.306203 26 8999ft 149kts
26-Oct-20 20:41 34.327868 -117.283572 26 8999ft 149kts
26-Oct-20 20:42 34.365418 -117.260819 26 8999ft 149kts
26-Oct-20 20:43 34.402964 -117.238045 26 8999ft 149kts
26-Oct-20 20:44 34.440593 -117.215197 26 8999ft 149kts
26-Oct-20 20:45 34.478250 -117.192310 26 8999ft 149kts
26-Oct-20 20:46 34.515667 -117.169545 26 8999ft 149kts
26-Oct-20 20:47 34.554106 -117.148314 13 8909ft 151kts
26-Oct-20 20:48 34.595394 -117.143046 359 8379ft 147kts
26-Oct-20 20:49 34.637872 -117.148752 347 7674ft 152kts
26-Oct-20 20:50 34.679030 -117.165447 335 6955ft 150kts
26-Oct-20 20:51 34.714016 -117.190427 323 6598ft 135kts
26-Oct-20 20:52 34.742848 -117.221483 312 6601ft 140kts
26-Oct-20 20:53 34.766819 -117.259519 301 6600ft 142kts
26-Oct-20 20:54 34.784388 -117.302559 290 6255ft 139kts
26-Oct-20 20:55 34.791413 -117.347200 278 5526ft 131kts
26-Oct-20 20:56 34.781266 -117.382023 187 4910ft 129kts
26-Oct-20 20:57 34.743209 -117.384508 180 4272ft 122kts
26-Oct-20 20:58 34.712211 -117.380068 170 4273ft 105kts
26-Oct-20 20:59 34.682970 -117.379785 185 4029ft 119kts
26-Oct-20 21:00 34.646532 -117.384003 185 3367ft 140kts
26-Oct-20 21:01 34.609540 -117.387632 180 3235ft 115kts
26-Oct-20 21:02 34.580588 -117.396744 253 3743ft 127kts
26-Oct-20 21:03 34.598616 -117.434648 308 4269ft 138kts
26-Oct-20 21:04 34.610345 -117.478743 281 4777ft 139kts
26-Oct-20 21:05 34.618087 -117.525120 281 5277ft 139kts
26-Oct-20 21:06 34.625934 -117.570857 281 5773ft 138kts
26-Oct-20 21:07 34.613630 -117.610637 191 5994ft 150kts
26-Oct-20 21:08 34.586076 -117.577604 98 5999ft 157kts
26-Oct-20 21:09 34.579923 -117.523061 97 5754ft 166kts
26-Oct-20 21:10 34.576328 -117.465944 78 5286ft 173kts
26-Oct-20 21:11 34.582882 -117.422450 75 4388ft 118kts
26-Oct-20 21:12 34.605456 -117.394298 41 3704ft 111kts
26-Oct-20 21:13 34.624765 -117.369566 85 3695ft 99kts
26-Oct-20 21:14 34.605155 -117.360713 222 3110ft 96kts
26-Oct-20 21:15 34.593985 -117.372745 175 2863ft 0kts
26-Oct-20 21:16 34.592525 -117.373220 228 2866ft 22kts
26-Oct-20 21:17 34.589093 -117.373950 223 2872ft 0kts
26-Oct-20 21:18 34.589093 -117.373950 223 2872ft 0kts
26-Oct-20 21:19 34.589093 -117.373950 223 2872ft 0kts
26-Oct-20 21:20 34.589093 -117.373950 223 2872ft 0kts

Navigation Log

Ident Type
Flight plan parsing failed, navigation log unavailable